createdAt,value
2023-08-21T00:03:16.718Z,11.43
2023-08-21T00:13:20.102Z,8.95
2023-08-21T00:23:24.493Z,10.13
2023-08-21T00:33:27.470Z,15.52
2023-08-21T00:43:31.914Z,11.77
2023-08-21T00:53:35.402Z,9.45
2023-08-21T01:03:39.763Z,9.83
2023-08-21T01:13:54.802Z,7.03
2023-08-21T01:23:59.215Z,11.07
2023-08-21T01:34:06.520Z,13.02
2023-08-21T01:44:10.892Z,14.57
2023-08-21T01:54:13.952Z,10.13
2023-08-21T02:04:18.416Z,16.20
2023-08-21T02:14:21.529Z,13.00
2023-08-21T02:24:25.883Z,10.52
2023-08-21T02:34:28.959Z,13.30
2023-08-21T02:44:33.327Z,13.27
2023-08-21T02:54:36.292Z,14.48
2023-08-21T03:04:40.767Z,13.02
2023-08-21T03:14:44.009Z,20.00
2023-08-21T03:24:48.369Z,22.67
2023-08-21T03:34:51.493Z,13.82
2023-08-21T03:44:57.541Z,17.80
2023-08-21T03:55:01.211Z,13.88
2023-08-21T04:05:06.900Z,7.33
2023-08-21T04:15:11.327Z,17.13
2023-08-21T04:35:18.669Z,8.67
2023-08-21T04:45:23.115Z,13.75
2023-08-21T04:55:26.323Z,15.60
2023-08-21T05:05:30.865Z,12.82
2023-08-21T05:15:34.171Z,14.15
2023-08-21T05:25:39.989Z,18.50
2023-08-21T05:35:43.663Z,12.32
2023-08-21T05:45:49.076Z,12.48
2023-08-21T05:55:52.344Z,20.13
2023-08-21T06:05:56.798Z,20.17
2023-08-21T06:15:59.921Z,20.77
2023-08-21T06:26:05.923Z,12.45
2023-08-21T06:36:09.053Z,16.77
2023-08-21T06:46:13.552Z,15.27
2023-08-21T06:56:18.659Z,16.60
2023-08-21T07:06:23.016Z,19.83
2023-08-21T07:16:27.582Z,14.07
2023-08-21T07:26:32.271Z,13.52
2023-08-21T07:36:35.621Z,14.40
2023-08-21T07:46:40.049Z,16.08
2023-08-21T07:56:43.075Z,14.88
2023-08-21T08:06:47.497Z,11.03
2023-08-21T08:16:50.481Z,11.63
2023-08-21T08:26:55.257Z,12.77
2023-08-21T08:36:58.194Z,18.45
2023-08-21T08:47:03.278Z,14.07
2023-08-21T08:57:06.576Z,9.55
2023-08-21T09:07:12.174Z,15.27
2023-08-21T09:17:15.994Z,8.68
2023-08-21T09:27:20.853Z,12.40
2023-08-21T09:37:30.806Z,6.57
2023-08-21T09:47:36.154Z,11.45
2023-08-21T09:57:39.721Z,10.82
2023-08-21T10:07:46.221Z,9.25
2023-08-21T10:17:49.271Z,10.05
2023-08-21T10:27:55.223Z,8.00
2023-08-21T10:38:12.554Z,4.93
2023-08-21T10:48:16.900Z,11.30
2023-08-21T10:58:19.906Z,10.77
2023-08-21T11:08:24.668Z,8.85
2023-08-21T11:18:33.204Z,6.97
2023-08-21T11:39:06.333Z,5.05
2023-08-21T11:49:11.879Z,6.65
2023-08-21T11:59:24.738Z,11.10
2023-08-21T12:09:29.257Z,5.15
2023-08-21T12:19:34.822Z,6.75
2023-08-21T12:29:47.759Z,6.00
2023-08-21T12:39:51.830Z,5.10
2023-08-21T12:50:04.618Z,5.25
2023-08-21T13:00:12.776Z,4.70
2023-08-21T13:10:18.725Z,8.75
2023-08-21T13:20:24.637Z,5.97
2023-08-21T13:30:34.274Z,6.30
2023-08-21T13:40:37.805Z,3.63
2023-08-21T13:50:51.447Z,5.82
2023-08-21T14:00:54.889Z,4.43
2023-08-21T14:11:04.278Z,9.30
2023-08-21T14:21:14.811Z,6.10
2023-08-21T14:31:25.260Z,5.47
2023-08-21T14:41:31.882Z,4.68
2023-08-21T14:51:41.320Z,4.95
2023-08-21T15:01:48.979Z,2.88
2023-08-21T15:12:00.231Z,6.45
2023-08-21T15:22:04.524Z,6.20
2023-08-21T15:32:17.362Z,4.78
2023-08-21T15:42:21.041Z,2.45
2023-08-21T15:52:40.721Z,4.28
2023-08-21T16:02:44.839Z,2.53
2023-08-21T16:12:49.453Z,2.72
2023-08-21T16:22:54.326Z,4.32
2023-08-21T16:33:05.843Z,5.88
2023-08-21T16:43:16.748Z,2.17
2023-08-21T16:53:27.856Z,4.30
2023-08-21T17:03:34.584Z,4.65
2023-08-21T17:13:46.461Z,5.65
2023-08-21T17:23:49.598Z,6.13
2023-08-21T17:34:00.567Z,3.97
2023-08-21T17:44:07.416Z,7.85
2023-08-21T17:54:18.989Z,5.95
2023-08-21T18:04:22.988Z,9.43
2023-08-21T18:14:32.849Z,4.70
2023-08-21T18:24:39.559Z,5.93
2023-08-21T18:34:48.827Z,2.92
2023-08-21T18:44:58.473Z,3.25
2023-08-21T18:55:03.694Z,5.78
2023-08-21T19:05:07.750Z,4.90
2023-08-21T19:15:12.886Z,9.73
2023-08-21T19:25:16.024Z,9.15
2023-08-21T19:35:20.660Z,7.40
2023-08-21T19:45:23.697Z,8.65
2023-08-21T19:55:28.352Z,4.70
2023-08-21T20:05:31.592Z,6.32
2023-08-21T20:15:36.432Z,12.40
2023-08-21T20:25:39.512Z,13.23
2023-08-21T20:35:43.948Z,6.83
2023-08-21T20:45:47.208Z,5.82
2023-08-21T20:55:51.553Z,8.93
2023-08-21T21:05:55.512Z,11.18
2023-08-21T21:26:03.721Z,6.87
2023-08-21T21:36:09.282Z,7.70
2023-08-21T21:46:26.415Z,9.00
2023-08-21T21:56:31.157Z,8.77
2023-08-21T22:06:39.861Z,8.98
2023-08-21T22:16:44.206Z,8.77
2023-08-21T22:26:47.226Z,13.93
2023-08-21T22:36:54.331Z,15.50
2023-08-21T22:46:57.327Z,11.90
2023-08-21T22:57:02.020Z,13.60
2023-08-21T23:07:05.532Z,6.75
2023-08-21T23:17:09.941Z,8.53
2023-08-21T23:27:12.913Z,14.07
2023-08-21T23:37:17.526Z,8.02
2023-08-21T23:47:20.522Z,9.32
2023-08-21T23:57:24.960Z,7.07
